PWSweather.com
Personal Weather Stations
Station Observations
COONRAPIDS
Minneapolis, MN 55433

Minneapolis, MN 55433

Lat: 45.187721, Lon: -93.36828

Elevation: 898

Station Type: Davis Vantage Pro 2

High Low Average
Temperature 13.6°F-10.2°C -14.7°F-25.9°C 0.2°F-17.7°C
Dew Point 3.1°F-16.1°C -20.8°F-29.3°C -9.3°F-22.9°C
Winds 3.5 mph 5.6 kmh Calm Calm 1.0 mph ESE1.6 kmh ESE
Wind Gusts 8.1 mph13.0 kmh -- 2.0 mph3.2 kmh
Humidity 78% 51% 64%
Pressure 30.73 in1040.6 mb 30.11 in1019.6 mb -
Precipitation 0.00 in0.0 mm - -
Hour Temp Dew Point Humidity Winds Wind Gusts Pressure Precip Precip Rate Daily Precip Total
12:00 AM -12.4°F-24.7°C -18.3°F-27.9°C 74% Calm Calm -- 30.70 in1039.6 mb - 0.00 in0.0 mm 0.00 in0.0 mm
12:10 AM -12.6°F-24.8°C -18.5°F-28.1°C 74% Calm Calm -- 30.70 in1039.6 mb - 0.00 in0.0 mm 0.00 in0.0 mm
12:20 AM -12.7°F-24.8°C -18.6°F-28.1°C 74% Calm Calm -- 30.70 in1039.6 mb - 0.00 in0.0 mm 0.00 in0.0 mm
12:30 AM -12.6°F-24.8°C -18.5°F-28.1°C 74% Calm Calm -- 30.70 in1039.6 mb - 0.00 in0.0 mm 0.00 in0.0 mm
12:40 AM -12.5°F-24.7°C -18.4°F-28.0°C 74% Calm Calm -- 30.71 in1040.0 mb - 0.00 in0.0 mm 0.00 in0.0 mm
12:50 AM -12.6°F-24.8°C -18.5°F-28.1°C 74% Calm Calm -- 30.71 in1040.0 mb - 0.00 in0.0 mm 0.00 in0.0 mm
01:00 AM -12.8°F-24.9°C -18.7°F-28.2°C 74% Calm Calm -- 30.70 in1039.6 mb - 0.00 in0.0 mm 0.00 in0.0 mm
01:10 AM -13.0°F-25.0°C -18.9°F-28.3°C 74% Calm Calm -- 30.70 in1039.6 mb - 0.00 in0.0 mm 0.00 in0.0 mm
01:20 AM -13.2°F-25.1°C -19.1°F-28.4°C 74% Calm Calm -- 30.71 in1040.0 mb - 0.00 in0.0 mm 0.00 in0.0 mm
01:30 AM -13.1°F-25.1°C -19.0°F-28.3°C 74% Calm Calm -- 30.70 in1039.6 mb - 0.00 in0.0 mm 0.00 in0.0 mm
01:40 AM -13.0°F-25.0°C -18.9°F-28.3°C 74% Calm Calm -- 30.71 in1040.0 mb - 0.00 in0.0 mm 0.00 in0.0 mm
01:50 AM -13.0°F-25.0°C -18.9°F-28.3°C 74% Calm Calm -- 30.71 in1040.0 mb - 0.00 in0.0 mm 0.00 in0.0 mm
02:00 AM -13.2°F-25.1°C -19.1°F-28.4°C 74% Calm Calm -- 30.71 in1040.0 mb - 0.00 in0.0 mm 0.00 in0.0 mm
02:10 AM -13.5°F-25.3°C -19.7°F-28.7°C 73% Calm Calm -- 30.71 in1040.0 mb - 0.00 in0.0 mm 0.00 in0.0 mm
02:20 AM -13.8°F-25.4°C -20.0°F-28.9°C 73% Calm Calm -- 30.72 in1040.3 mb - 0.00 in0.0 mm 0.00 in0.0 mm
02:30 AM -13.9°F-25.5°C -20.1°F-28.9°C 73% Calm Calm -- 30.73 in1040.6 mb - 0.00 in0.0 mm 0.00 in0.0 mm
02:40 AM -13.9°F-25.5°C -19.8°F-28.8°C 74% Calm Calm -- 30.73 in1040.6 mb - 0.00 in0.0 mm 0.00 in0.0 mm
02:50 AM -14.0°F-25.6°C -19.9°F-28.8°C 74% Calm Calm -- 30.73 in1040.6 mb - 0.00 in0.0 mm 0.00 in0.0 mm
03:00 AM -14.0°F-25.6°C -19.9°F-28.8°C 74% Calm Calm -- 30.73 in1040.6 mb - 0.00 in0.0 mm 0.00 in0.0 mm
03:10 AM -13.9°F-25.5°C -19.8°F-28.8°C 74% Calm Calm -- 30.73 in1040.6 mb - 0.00 in0.0 mm 0.00 in0.0 mm
03:20 AM -13.8°F-25.4°C -19.7°F-28.7°C 74% Calm Calm -- 30.73 in1040.6 mb - 0.00 in0.0 mm 0.00 in0.0 mm
03:30 AM -13.9°F-25.5°C -19.8°F-28.8°C 74% Calm Calm -- 30.73 in1040.6 mb - 0.00 in0.0 mm 0.00 in0.0 mm
03:40 AM -14.0°F-25.6°C -19.9°F-28.8°C 74% Calm Calm -- 30.72 in1040.3 mb - 0.00 in0.0 mm 0.00 in0.0 mm
03:50 AM -14.2°F-25.7°C -20.4°F-29.1°C 73% Calm Calm -- 30.72 in1040.3 mb - 0.00 in0.0 mm 0.00 in0.0 mm
04:00 AM -14.4°F-25.8°C -20.5°F-29.2°C 73% Calm Calm -- 30.71 in1040.0 mb - 0.00 in0.0 mm 0.00 in0.0 mm
04:10 AM -14.6°F-25.9°C -20.7°F-29.3°C 73% Calm Calm -- 30.71 in1040.0 mb - 0.00 in0.0 mm 0.00 in0.0 mm
04:20 AM -14.7°F-25.9°C -20.8°F-29.3°C 73% Calm Calm -- 30.71 in1040.0 mb - 0.00 in0.0 mm 0.00 in0.0 mm
04:30 AM -14.7°F-25.9°C -20.8°F-29.3°C 73% Calm Calm -- 30.71 in1040.0 mb - 0.00 in0.0 mm 0.00 in0.0 mm
04:40 AM -14.7°F-25.9°C -20.8°F-29.3°C 73% Calm Calm -- 30.70 in1039.6 mb - 0.00 in0.0 mm 0.00 in0.0 mm
04:50 AM -14.7°F-25.9°C -20.6°F-29.2°C 74% Calm Calm -- 30.70 in1039.6 mb - 0.00 in0.0 mm 0.00 in0.0 mm
05:00 AM -14.5°F-25.8°C -20.4°F-29.1°C 74% Calm Calm -- 30.70 in1039.6 mb - 0.00 in0.0 mm 0.00 in0.0 mm
05:10 AM -14.5°F-25.8°C -20.3°F-29.1°C 74% Calm Calm -- 30.70 in1039.6 mb - 0.00 in0.0 mm 0.00 in0.0 mm
05:20 AM -14.5°F-25.8°C -20.6°F-29.2°C 73% Calm Calm -- 30.69 in1039.3 mb - 0.00 in0.0 mm 0.00 in0.0 mm
05:30 AM -14.7°F-25.9°C -20.8°F-29.3°C 73% Calm Calm -- 30.69 in1039.3 mb - 0.00 in0.0 mm 0.00 in0.0 mm
05:40 AM -14.7°F-25.9°C -20.6°F-29.2°C 74% Calm Calm -- 30.68 in1038.9 mb - 0.00 in0.0 mm 0.00 in0.0 mm
05:50 AM -14.7°F-25.9°C -20.6°F-29.2°C 74% Calm Calm -- 30.68 in1038.9 mb - 0.00 in0.0 mm 0.00 in0.0 mm
06:00 AM -14.7°F-25.9°C -20.8°F-29.3°C 73% Calm Calm -- 30.68 in1038.9 mb - 0.00 in0.0 mm 0.00 in0.0 mm
06:10 AM -14.7°F-25.9°C -20.6°F-29.2°C 74% Calm Calm -- 30.68 in1038.9 mb - 0.00 in0.0 mm 0.00 in0.0 mm
06:20 AM -14.6°F-25.9°C -20.5°F-29.2°C 74% Calm Calm -- 30.67 in1038.6 mb - 0.00 in0.0 mm 0.00 in0.0 mm
06:30 AM -14.7°F-25.9°C -20.8°F-29.3°C 73% Calm Calm -- 30.66 in1038.3 mb - 0.00 in0.0 mm 0.00 in0.0 mm
06:40 AM -14.6°F-25.9°C -20.8°F-29.3°C 73% Calm Calm -- 30.66 in1038.3 mb - 0.00 in0.0 mm 0.00 in0.0 mm
06:50 AM -14.6°F-25.9°C -20.8°F-29.3°C 73% Calm Calm -- 30.66 in1038.3 mb - 0.00 in0.0 mm 0.00 in0.0 mm
07:00 AM -14.7°F-25.9°C -20.8°F-29.3°C 73% Calm Calm -- 30.66 in1038.3 mb - 0.00 in0.0 mm 0.00 in0.0 mm
07:10 AM -14.6°F-25.9°C -20.8°F-29.3°C 73% Calm Calm -- 30.66 in1038.3 mb - 0.00 in0.0 mm 0.00 in0.0 mm
07:20 AM -14.5°F-25.8°C -20.4°F-29.1°C 74% Calm Calm -- 30.66 in1038.3 mb - 0.00 in0.0 mm 0.00 in0.0 mm
07:30 AM -14.5°F-25.8°C -20.4°F-29.1°C 74% Calm Calm -- 30.66 in1038.3 mb - 0.00 in0.0 mm 0.00 in0.0 mm
07:40 AM -14.4°F-25.8°C -20.3°F-29.1°C 74% Calm Calm -- 30.66 in1038.3 mb - 0.00 in0.0 mm 0.00 in0.0 mm
07:50 AM -14.3°F-25.7°C -20.2°F-29.0°C 74% Calm Calm -- 30.66 in1038.3 mb - 0.00 in0.0 mm 0.00 in0.0 mm
08:00 AM -14.3°F-25.7°C -20.2°F-29.0°C 74% Calm Calm -- 30.66 in1038.3 mb - 0.00 in0.0 mm 0.00 in0.0 mm
08:10 AM -14.2°F-25.7°C -20.1°F-28.9°C 74% Calm Calm -- 30.66 in1038.3 mb - 0.00 in0.0 mm 0.00 in0.0 mm
08:20 AM -13.9°F-25.5°C -19.8°F-28.8°C 74% Calm Calm -- 30.65 in1037.9 mb - 0.00 in0.0 mm 0.00 in0.0 mm
08:30 AM -13.5°F-25.3°C -19.2°F-28.4°C 75% Calm Calm -- 30.65 in1037.9 mb - 0.00 in0.0 mm 0.00 in0.0 mm
08:40 AM -12.9°F-24.9°C -18.6°F-28.1°C 75% Calm Calm -- 30.64 in1037.6 mb - 0.00 in0.0 mm 0.00 in0.0 mm
08:50 AM -12.2°F-24.6°C -17.9°F-27.7°C 75% Calm Calm -- 30.64 in1037.6 mb - 0.00 in0.0 mm 0.00 in0.0 mm
09:00 AM -11.1°F-23.9°C -16.6°F-27.0°C 76% Calm Calm -- 30.64 in1037.6 mb - 0.00 in0.0 mm 0.00 in0.0 mm
09:10 AM -9.7°F-23.2°C -15.0°F-26.1°C 77% Calm Calm -- 30.64 in1037.6 mb - 0.00 in0.0 mm 0.00 in0.0 mm
09:20 AM -7.3°F-21.8°C -12.3°F-24.6°C 78% Calm Calm -- 30.64 in1037.6 mb - 0.00 in0.0 mm 0.00 in0.0 mm
09:30 AM -4.8°F-20.4°C -9.9°F-23.3°C 78% Calm Calm -- 30.64 in1037.6 mb - 0.00 in0.0 mm 0.00 in0.0 mm
09:40 AM -3.5°F-19.7°C -8.9°F-22.7°C 77% 1.2 mph NE1.9 kmh NE 1.2 mph1.9 kmh 30.64 in1037.6 mb - 0.00 in0.0 mm 0.00 in0.0 mm
09:50 AM -2.4°F-19.1°C -8.1°F-22.3°C 76% Calm Calm -- 30.63 in1037.3 mb - 0.00 in0.0 mm 0.00 in0.0 mm
10:00 AM -1.5°F-18.6°C -7.2°F-21.8°C 76% 1.2 mph NE1.9 kmh NE 2.3 mph3.7 kmh 30.64 in1037.6 mb - 0.00 in0.0 mm 0.00 in0.0 mm
10:10 AM -0.4°F-18.0°C -6.4°F-21.3°C 75% 1.2 mph E1.9 kmh E 2.3 mph3.7 kmh 30.64 in1037.6 mb - 0.00 in0.0 mm 0.00 in0.0 mm
10:20 AM 0.4°F-17.6°C -6.3°F-21.3°C 73% Calm Calm 1.2 mph1.9 kmh 30.63 in1037.3 mb - 0.00 in0.0 mm 0.00 in0.0 mm
10:30 AM 1.2°F-17.1°C -5.7°F-20.9°C 72% 1.2 mph S1.9 kmh S 3.5 mph5.6 kmh 30.63 in1037.3 mb - 0.00 in0.0 mm 0.00 in0.0 mm
10:40 AM 2.4°F-16.4°C -4.9°F-20.5°C 71% Calm Calm 2.3 mph3.7 kmh 30.62 in1036.9 mb - 0.00 in0.0 mm 0.00 in0.0 mm
10:50 AM 3.1°F-16.1°C -5.4°F-20.8°C 67% 1.2 mph S1.9 kmh S 3.5 mph5.6 kmh 30.62 in1036.9 mb - 0.00 in0.0 mm 0.00 in0.0 mm
11:00 AM 3.8°F-15.7°C -5.0°F-20.6°C 66% 1.2 mph S1.9 kmh S 2.3 mph3.7 kmh 30.62 in1036.9 mb - 0.00 in0.0 mm 0.00 in0.0 mm
11:10 AM 4.4°F-15.3°C -5.1°F-20.6°C 64% Calm Calm 1.2 mph1.9 kmh 30.61 in1036.6 mb - 0.00 in0.0 mm 0.00 in0.0 mm
11:20 AM 5.4°F-14.8°C -4.5°F-20.3°C 63% 1.2 mph SSE1.9 kmh SSE 3.5 mph5.6 kmh 30.60 in1036.2 mb - 0.00 in0.0 mm 0.00 in0.0 mm
11:30 AM 6.0°F-14.4°C -4.5°F-20.3°C 61% Calm Calm 2.3 mph3.7 kmh 30.59 in1035.9 mb - 0.00 in0.0 mm 0.00 in0.0 mm
11:40 AM 6.8°F-14.0°C -4.2°F-20.1°C 60% 2.3 mph SE3.7 kmh SE 3.5 mph5.6 kmh 30.58 in1035.6 mb - 0.00 in0.0 mm 0.00 in0.0 mm
11:50 AM 7.2°F-13.8°C -4.5°F-20.3°C 58% Calm Calm 3.5 mph5.6 kmh 30.57 in1035.2 mb - 0.00 in0.0 mm 0.00 in0.0 mm
12:00 PM 7.8°F-13.4°C -4.7°F-20.4°C 56% Calm Calm 2.3 mph3.7 kmh 30.56 in1034.9 mb - 0.00 in0.0 mm 0.00 in0.0 mm
12:10 PM 8.2°F-13.2°C -4.3°F-20.2°C 56% 1.2 mph S1.9 kmh S 3.5 mph5.6 kmh 30.55 in1034.5 mb - 0.00 in0.0 mm 0.00 in0.0 mm
12:20 PM 8.0°F-13.3°C -4.9°F-20.5°C 55% Calm Calm -- 30.54 in1034.2 mb - 0.00 in0.0 mm 0.00 in0.0 mm
12:30 PM 7.8°F-13.4°C -5.4°F-20.8°C 54% 1.2 mph SSW1.9 kmh SSW 3.5 mph5.6 kmh 30.54 in1034.2 mb - 0.00 in0.0 mm 0.00 in0.0 mm
12:40 PM 8.6°F-13.0°C -4.7°F-20.4°C 54% 1.2 mph S1.9 kmh S -- 30.53 in1033.9 mb - 0.00 in0.0 mm 0.00 in0.0 mm
12:50 PM 9.2°F-12.7°C -4.1°F-20.1°C 54% 2.3 mph S3.7 kmh S 3.5 mph5.6 kmh 30.52 in1033.5 mb - 0.00 in0.0 mm 0.00 in0.0 mm
01:00 PM 9.9°F-12.3°C -3.9°F-19.9°C 53% Calm Calm 2.3 mph3.7 kmh 30.52 in1033.5 mb - 0.00 in0.0 mm 0.00 in0.0 mm
01:10 PM 9.1°F-12.7°C -4.6°F-20.3°C 53% Calm Calm -- 30.51 in1033.2 mb - 0.00 in0.0 mm 0.00 in0.0 mm
01:20 PM 9.2°F-12.7°C -4.1°F-20.1°C 54% Calm Calm 1.2 mph1.9 kmh 30.50 in1032.8 mb - 0.00 in0.0 mm 0.00 in0.0 mm
01:30 PM 9.5°F-12.5°C -3.4°F-19.7°C 55% 1.2 mph S1.9 kmh S 2.3 mph3.7 kmh 30.50 in1032.8 mb - 0.00 in0.0 mm 0.00 in0.0 mm
01:40 PM 9.7°F-12.4°C -3.6°F-19.8°C 54% 1.2 mph SE1.9 kmh SE 2.3 mph3.7 kmh 30.49 in1032.5 mb - 0.00 in0.0 mm 0.00 in0.0 mm
01:50 PM 9.8°F-12.3°C -3.1°F-19.5°C 55% Calm Calm -- 30.48 in1032.2 mb - 0.00 in0.0 mm 0.00 in0.0 mm
02:00 PM 10.0°F-12.2°C -3.4°F-19.7°C 54% 1.2 mph SSE1.9 kmh SSE 3.5 mph5.6 kmh 30.46 in1031.5 mb - 0.00 in0.0 mm 0.00 in0.0 mm
02:10 PM 10.0°F-12.2°C -3.4°F-19.7°C 54% 1.2 mph SE1.9 kmh SE 3.5 mph5.6 kmh 30.46 in1031.5 mb - 0.00 in0.0 mm 0.00 in0.0 mm
02:20 PM 10.0°F-12.2°C -3.4°F-19.7°C 54% Calm Calm 2.3 mph3.7 kmh 30.45 in1031.2 mb - 0.00 in0.0 mm 0.00 in0.0 mm
02:30 PM 10.4°F-12.0°C -3.0°F-19.4°C 54% Calm Calm 3.5 mph5.6 kmh 30.45 in1031.2 mb - 0.00 in0.0 mm 0.00 in0.0 mm
02:40 PM 11.3°F-11.5°C -1.7°F-18.7°C 55% Calm Calm -- 30.44 in1030.8 mb - 0.00 in0.0 mm 0.00 in0.0 mm
02:50 PM 11.7°F-11.3°C -2.2°F-19.0°C 53% Calm Calm -- 30.43 in1030.5 mb - 0.00 in0.0 mm 0.00 in0.0 mm
03:00 PM 11.6°F-11.3°C -2.3°F-19.1°C 53% Calm Calm -- 30.42 in1030.1 mb - 0.00 in0.0 mm 0.00 in0.0 mm
03:10 PM 11.5°F-11.4°C -2.4°F-19.1°C 53% Calm Calm 1.2 mph1.9 kmh 30.41 in1029.8 mb - 0.00 in0.0 mm 0.00 in0.0 mm
03:20 PM 11.4°F-11.4°C -2.4°F-19.1°C 53% 1.2 mph SSE1.9 kmh SSE 3.5 mph5.6 kmh 30.42 in1030.1 mb - 0.00 in0.0 mm 0.00 in0.0 mm
03:30 PM 11.6°F-11.3°C -2.7°F-19.3°C 52% 1.2 mph SSE1.9 kmh SSE 2.3 mph3.7 kmh 30.42 in1030.1 mb - 0.00 in0.0 mm 0.00 in0.0 mm
03:40 PM 11.6°F-11.3°C -3.1°F-19.5°C 51% Calm Calm -- 30.41 in1029.8 mb - 0.00 in0.0 mm 0.00 in0.0 mm
03:50 PM 11.3°F-11.5°C -3.3°F-19.6°C 51% 1.2 mph S1.9 kmh S 2.3 mph3.7 kmh 30.40 in1029.5 mb - 0.00 in0.0 mm 0.00 in0.0 mm
04:00 PM 11.2°F-11.6°C -3.0°F-19.4°C 52% 1.2 mph S1.9 kmh S 3.5 mph5.6 kmh 30.39 in1029.1 mb - 0.00 in0.0 mm 0.00 in0.0 mm
04:10 PM 11.2°F-11.6°C -2.6°F-19.2°C 53% 1.2 mph SSE1.9 kmh SSE 3.5 mph5.6 kmh 30.38 in1028.8 mb - 0.00 in0.0 mm 0.00 in0.0 mm
04:20 PM 11.1°F-11.6°C -2.7°F-19.3°C 53% Calm Calm -- 30.38 in1028.8 mb - 0.00 in0.0 mm 0.00 in0.0 mm
04:30 PM 11.0°F-11.7°C -2.8°F-19.3°C 53% Calm Calm 2.3 mph3.7 kmh 30.37 in1028.4 mb - 0.00 in0.0 mm 0.00 in0.0 mm
04:40 PM 10.8°F-11.8°C -2.6°F-19.2°C 54% Calm Calm 3.5 mph5.6 kmh 30.37 in1028.4 mb - 0.00 in0.0 mm 0.00 in0.0 mm
04:50 PM 10.8°F-11.8°C -2.6°F-19.2°C 54% 1.2 mph SE1.9 kmh SE 4.6 mph7.4 kmh 30.37 in1028.4 mb - 0.00 in0.0 mm 0.00 in0.0 mm
05:00 PM 10.8°F-11.8°C -2.6°F-19.2°C 54% Calm Calm -- 30.37 in1028.4 mb - 0.00 in0.0 mm 0.00 in0.0 mm
05:10 PM 10.7°F-11.8°C -1.9°F-18.8°C 56% Calm Calm -- 30.36 in1028.1 mb - 0.00 in0.0 mm 0.00 in0.0 mm
05:20 PM 10.6°F-11.9°C -2.0°F-18.9°C 56% 1.2 mph SE1.9 kmh SE 3.5 mph5.6 kmh 30.36 in1028.1 mb - 0.00 in0.0 mm 0.00 in0.0 mm
05:30 PM 10.3°F-12.1°C -2.3°F-19.1°C 56% 2.3 mph S3.7 kmh S 2.3 mph3.7 kmh 30.35 in1027.8 mb - 0.00 in0.0 mm 0.00 in0.0 mm
05:40 PM 10.1°F-12.2°C -2.1°F-18.9°C 57% 2.3 mph SE3.7 kmh SE 4.6 mph7.4 kmh 30.34 in1027.4 mb - 0.00 in0.0 mm 0.00 in0.0 mm
05:50 PM 10.1°F-12.2°C -2.1°F-18.9°C 57% 2.3 mph S3.7 kmh S 5.8 mph9.3 kmh 30.33 in1027.1 mb - 0.00 in0.0 mm 0.00 in0.0 mm
06:00 PM 10.1°F-12.2°C -1.8°F-18.8°C 58% Calm Calm -- 30.32 in1026.8 mb - 0.00 in0.0 mm 0.00 in0.0 mm
06:10 PM 10.1°F-12.2°C -1.8°F-18.8°C 58% Calm Calm -- 30.33 in1027.1 mb - 0.00 in0.0 mm 0.00 in0.0 mm
06:20 PM 10.1°F-12.2°C -1.8°F-18.8°C 58% Calm Calm -- 30.32 in1026.8 mb - 0.00 in0.0 mm 0.00 in0.0 mm
06:30 PM 10.2°F-12.1°C -1.7°F-18.7°C 58% 2.3 mph SE3.7 kmh SE 5.8 mph9.3 kmh 30.32 in1026.8 mb - 0.00 in0.0 mm 0.00 in0.0 mm
06:40 PM 10.3°F-12.1°C -1.9°F-18.8°C 57% Calm Calm 2.3 mph3.7 kmh 30.31 in1026.4 mb - 0.00 in0.0 mm 0.00 in0.0 mm
06:50 PM 10.3°F-12.1°C -2.3°F-19.1°C 56% Calm Calm -- 30.30 in1026.1 mb - 0.00 in0.0 mm 0.00 in0.0 mm
07:00 PM 10.4°F-12.0°C -2.3°F-19.1°C 56% 1.2 mph SSE1.9 kmh SSE 3.5 mph5.6 kmh 30.30 in1026.1 mb - 0.00 in0.0 mm 0.00 in0.0 mm
07:10 PM 10.4°F-12.0°C -2.3°F-19.1°C 56% 3.5 mph S5.6 kmh S 4.6 mph7.4 kmh 30.30 in1026.1 mb - 0.00 in0.0 mm 0.00 in0.0 mm
07:20 PM 10.4°F-12.0°C -2.2°F-19.0°C 56% 1.2 mph S1.9 kmh S 3.5 mph5.6 kmh 30.28 in1025.4 mb - 0.00 in0.0 mm 0.00 in0.0 mm
07:30 PM 10.5°F-11.9°C -2.1°F-18.9°C 56% 1.2 mph S1.9 kmh S 3.5 mph5.6 kmh 30.27 in1025.1 mb - 0.00 in0.0 mm 0.00 in0.0 mm
07:40 PM 10.6°F-11.9°C -2.0°F-18.9°C 56% 1.2 mph S1.9 kmh S 4.6 mph7.4 kmh 30.26 in1024.7 mb - 0.00 in0.0 mm 0.00 in0.0 mm
07:50 PM 10.7°F-11.8°C -1.9°F-18.8°C 56% Calm Calm -- 30.26 in1024.7 mb - 0.00 in0.0 mm 0.00 in0.0 mm
08:00 PM 10.8°F-11.8°C -1.8°F-18.8°C 56% 1.2 mph SSE1.9 kmh SSE 4.6 mph7.4 kmh 30.25 in1024.4 mb - 0.00 in0.0 mm 0.00 in0.0 mm
08:10 PM 10.9°F-11.7°C -1.7°F-18.7°C 56% 2.3 mph SSE3.7 kmh SSE 8.1 mph13.0 kmh 30.23 in1023.7 mb - 0.00 in0.0 mm 0.00 in0.0 mm
08:20 PM 10.9°F-11.7°C -1.7°F-18.7°C 56% 2.3 mph SSE3.7 kmh SSE 2.3 mph3.7 kmh 30.23 in1023.7 mb - 0.00 in0.0 mm 0.00 in0.0 mm
08:30 PM 11.0°F-11.7°C -1.7°F-18.7°C 56% 1.2 mph SE1.9 kmh SE 4.6 mph7.4 kmh 30.22 in1023.4 mb - 0.00 in0.0 mm 0.00 in0.0 mm
08:40 PM 11.1°F-11.6°C -1.2°F-18.4°C 57% 1.2 mph SE1.9 kmh SE 3.5 mph5.6 kmh 30.21 in1023.0 mb - 0.00 in0.0 mm 0.00 in0.0 mm
08:50 PM 11.2°F-11.6°C -1.1°F-18.4°C 57% Calm Calm 1.2 mph1.9 kmh 30.20 in1022.7 mb - 0.00 in0.0 mm 0.00 in0.0 mm
09:00 PM 11.3°F-11.5°C -1.0°F-18.3°C 57% 1.2 mph SSE1.9 kmh SSE 3.5 mph5.6 kmh 30.18 in1022.0 mb - 0.00 in0.0 mm 0.00 in0.0 mm
09:10 PM 11.4°F-11.4°C -0.9°F-18.3°C 57% 1.2 mph S1.9 kmh S 1.2 mph1.9 kmh 30.18 in1022.0 mb - 0.00 in0.0 mm 0.00 in0.0 mm
09:20 PM 11.4°F-11.4°C -1.3°F-18.5°C 56% 1.2 mph S1.9 kmh S 4.6 mph7.4 kmh 30.17 in1021.7 mb - 0.00 in0.0 mm 0.00 in0.0 mm
09:30 PM 11.4°F-11.4°C -1.3°F-18.5°C 56% Calm Calm -- 30.17 in1021.7 mb - 0.00 in0.0 mm 0.00 in0.0 mm
09:40 PM 11.6°F-11.3°C -1.1°F-18.4°C 56% 1.2 mph S1.9 kmh S 2.3 mph3.7 kmh 30.16 in1021.3 mb - 0.00 in0.0 mm 0.00 in0.0 mm
09:50 PM 11.6°F-11.3°C -1.1°F-18.4°C 56% 1.2 mph SSE1.9 kmh SSE 3.5 mph5.6 kmh 30.15 in1021.0 mb - 0.00 in0.0 mm 0.00 in0.0 mm
10:00 PM 11.6°F-11.3°C -1.0°F-18.3°C 56% 3.5 mph S5.6 kmh S 5.8 mph9.3 kmh 30.14 in1020.7 mb - 0.00 in0.0 mm 0.00 in0.0 mm
10:10 PM 11.7°F-11.3°C -0.6°F-18.1°C 57% 1.2 mph S1.9 kmh S 3.5 mph5.6 kmh 30.14 in1020.7 mb - 0.00 in0.0 mm 0.00 in0.0 mm
10:20 PM 11.9°F-11.2°C -0.4°F-18.0°C 57% Calm Calm 6.9 mph11.1 kmh 30.14 in1020.7 mb - 0.00 in0.0 mm 0.00 in0.0 mm
10:30 PM 11.9°F-11.2°C -0.1°F-17.8°C 58% 1.2 mph SSE1.9 kmh SSE 3.5 mph5.6 kmh 30.14 in1020.7 mb - 0.00 in0.0 mm 0.00 in0.0 mm
10:40 PM 11.5°F-11.4°C 1.7°F-16.8°C 64% Calm Calm 2.3 mph3.7 kmh 30.14 in1020.7 mb - 0.00 in0.0 mm 0.00 in0.0 mm
10:50 PM 11.8°F-11.2°C 2.0°F-16.7°C 64% 1.2 mph S1.9 kmh S 3.5 mph5.6 kmh 30.14 in1020.7 mb - 0.00 in0.0 mm 0.00 in0.0 mm
11:00 PM 12.1°F-11.1°C 2.2°F-16.6°C 64% 1.2 mph S1.9 kmh S 3.5 mph5.6 kmh 30.14 in1020.7 mb - 0.00 in0.0 mm 0.00 in0.0 mm
11:10 PM 12.4°F-10.9°C 2.2°F-16.6°C 63% 1.2 mph S1.9 kmh S 3.5 mph5.6 kmh 30.13 in1020.3 mb - 0.00 in0.0 mm 0.00 in0.0 mm
11:20 PM 12.8°F-10.7°C 2.2°F-16.6°C 62% 1.2 mph S1.9 kmh S 3.5 mph5.6 kmh 30.12 in1020.0 mb - 0.00 in0.0 mm 0.00 in0.0 mm
11:30 PM 13.2°F-10.4°C 2.9°F-16.2°C 63% 1.2 mph S1.9 kmh S 3.5 mph5.6 kmh 30.11 in1019.6 mb - 0.00 in0.0 mm 0.00 in0.0 mm
11:40 PM 13.4°F-10.3°C 3.1°F-16.1°C 63% 2.3 mph SSW3.7 kmh SSW 5.8 mph9.3 kmh 30.11 in1019.6 mb - 0.00 in0.0 mm 0.00 in0.0 mm
11:50 PM 13.6°F-10.2°C 3.0°F-16.1°C 62% 3.5 mph SSW5.6 kmh SSW 5.8 mph9.3 kmh 30.11 in1019.6 mb - 0.00 in0.0 mm 0.00 in0.0 mm